Time;durP1;ratioP1;P1;durP2;ratioP2;P2;SDS_P1;SDS_P2;PMS_P1;PMS_P2;Temp;Humidity;BMP_temperature;BMP_pressure;BME280_temperature;BME280_humidity;BME280_pressure;Samples;Min_cycle;Max_cycle;Signal;HPM_P1;HPM_P2
2023/03/22 18:55:23;;;;;;;50.20;34.30;;;;;;;10.91;71.19;99803.22;102646;1295;600425;-68
2023/03/22 18:57:50;;;;;;;61.00;36.80;;;;;;;10.85;71.13;99806.48;104528;1272;60561;-71
2023/03/22 19:00:19;;;;;;;57.90;39.00;;;;;;;10.82;71.29;99809.61;104876;1270;59575;-70
2023/03/22 19:02:47;;;;;;;64.10;41.20;;;;;;;10.78;71.46;99806.66;104889;1268;73211;-71
2023/03/22 19:05:14;;;;;;;57.30;38.00;;;;;;;10.75;71.65;99810.80;104474;1272;67644;-70
2023/03/22 19:07:44;;;;;;;54.60;36.30;;;;;;;10.71;71.92;99811.35;104780;1270;72284;-71
2023/03/22 19:10:12;;;;;;;71.00;47.80;;;;;;;10.66;72.13;99811.38;105100;1255;539986;-69
2023/03/22 19:12:40;;;;;;;46.80;31.00;;;;;;;10.61;71.90;99813.63;105730;1256;60219;-70
2023/03/22 19:15:17;;;;;;;46.60;33.20;;;;;;;10.53;71.56;99811.77;105290;1254;74094;-71
2023/03/22 19:17:44;;;;;;;57.60;42.20;;;;;;;10.43;71.79;99812.05;105856;1254;67981;-66
2023/03/22 19:20:13;;;;;;;51.80;35.70;;;;;;;10.34;72.02;99810.89;105438;1259;73120;-70
2023/03/22 19:22:41;;;;;;;48.90;33.90;;;;;;;10.28;72.73;99810.91;105860;1254;61016;-67
2023/03/22 19:25:09;;;;;;;46.90;33.00;;;;;;;10.24;73.29;99811.11;105358;1254;60240;-72
2023/03/22 19:27:37;;;;;;;56.40;33.30;;;;;;;10.21;73.62;99810.74;105512;1254;72082;-68
2023/03/22 19:30:05;;;;;;;56.90;37.80;;;;;;;10.20;74.04;99813.03;105789;1258;69285;-71
2023/03/22 19:32:33;;;;;;;49.90;35.10;;;;;;;10.21;74.78;99809.95;105397;1260;73912;-66
2023/03/22 19:35:01;;;;;;;52.20;38.50;;;;;;;10.27;74.88;99809.55;105447;1259;62170;-71
2023/03/22 19:37:29;;;;;;;59.20;41.80;;;;;;;10.35;74.93;99804.30;105211;1256;61157;-68
2023/03/22 19:39:57;;;;;;;77.50;52.40;;;;;;;10.40;74.83;99801.85;105802;1256;72990;-69
2023/03/22 19:42:24;;;;;;;73.60;46.40;;;;;;;10.42;74.66;99802.91;105585;1258;68207;-69
2023/03/22 19:44:51;;;;;;;63.70;44.60;;;;;;;10.42;74.54;99802.86;105715;1254;74228;-70
2023/03/22 19:47:20;;;;;;;71.70;48.20;;;;;;;10.42;74.35;99805.05;105525;1256;61584;-68
2023/03/22 19:49:48;;;;;;;47.70;32.50;;;;;;;10.37;74.06;99806.66;105534;1254;60966;-70
2023/03/22 19:52:18;;;;;;;68.30;45.60;;;;;;;10.29;73.78;99806.84;105889;1256;73460;-71
2023/03/22 19:54:44;;;;;;;85.20;53.80;;;;;;;10.22;74.24;99802.95;105849;1259;68363;-69
2023/03/22 19:57:12;;;;;;;82.60;54.20;;;;;;;10.16;74.56;99800.95;105727;1257;75719;-69
2023/03/22 19:59:40;;;;;;;71.80;47.50;;;;;;;10.09;74.65;99799.61;105362;1256;59766;-70
2023/03/22 20:02:08;;;;;;;71.70;49.50;;;;;;;10.03;75.04;99795.64;105267;1255;61268;-69
2023/03/22 20:04:36;;;;;;;73.00;47.70;;;;;;;9.95;75.35;99799.27;105377;1256;74833;-68
2023/03/22 20:07:04;;;;;;;80.00;53.90;;;;;;;9.88;75.75;99797.38;105508;1258;68575;-70
2023/03/22 20:09:31;;;;;;;72.50;47.90;;;;;;;9.82;76.12;99799.57;105690;1260;74160;-73
2023/03/22 20:11:58;;;;;;;63.40;40.40;;;;;;;9.74;76.31;99798.21;105712;1257;61397;-71
2023/03/22 20:14:25;;;;;;;55.80;39.20;;;;;;;9.70;77.02;99796.02;105617;1254;59762;-70
2023/03/22 20:16:53;;;;;;;47.50;36.80;;;;;;;9.67;77.62;99795.02;105452;1254;74029;-70
2023/03/22 20:19:20;;;;;;;44.60;35.90;;;;;;;9.67;78.12;99793.34;105467;1255;67123;-72
2023/03/22 20:21:47;;;;;;;40.60;32.60;;;;;;;9.70;78.99;99787.92;105810;1258;72908;-68
2023/03/22 20:24:17;;;;;;;46.80;34.60;;;;;;;9.73;79.96;99780.61;105331;1259;61174;-72
2023/03/22 20:26:44;;;;;;;44.70;34.60;;;;;;;9.77;80.33;99780.95;105666;1257;61516;-74
2023/03/22 20:29:11;;;;;;;42.30;34.40;;;;;;;9.81;80.72;99780.16;105841;1259;73981;-74
2023/03/22 20:31:38;;;;;;;41.50;33.50;;;;;;;9.82;81.28;99783.57;105749;1257;69648;-72
2023/03/22 20:34:06;;;;;;;40.90;31.80;;;;;;;9.83;81.38;99785.36;105640;1259;74012;-73
2023/03/22 20:36:35;;;;;;;46.80;35.40;;;;;;;9.82;81.92;99784.76;105381;1257;61858;-74
2023/03/22 20:39:04;;;;;;;44.00;33.40;;;;;;;9.81;82.63;99783.98;105853;1255;62000;-70
2023/03/22 20:41:32;;;;;;;41.50;34.50;;;;;;;9.78;83.02;99779.89;105535;1259;74068;-70
2023/03/22 20:43:59;;;;;;;42.50;32.90;;;;;;;9.78;83.31;99778.08;105719;1257;69475;-74
2023/03/22 20:46:27;;;;;;;38.60;29.90;;;;;;;9.80;83.48;99777.89;105680;1254;71274;-72
2023/03/22 20:48:55;;;;;;;41.50;31.30;;;;;;;9.83;83.77;99775.31;105410;1256;61916;-69
2023/03/22 20:51:24;;;;;;;45.20;32.90;;;;;;;9.86;83.88;99775.95;105831;1257;61298;-67
2023/03/22 20:53:51;;;;;;;43.00;33.60;;;;;;;9.90;83.91;99777.25;105370;1260;73555;-70
2023/03/22 20:56:21;;;;;;;40.90;33.70;;;;;;;9.93;84.10;99778.54;105503;1254;68602;-74
2023/03/22 20:58:49;;;;;;;45.90;34.30;;;;;;;9.93;84.23;99779.73;105385;1257;73049;-74
2023/03/22 21:01:19;;;;;;;49.10;36.70;;;;;;;9.94;83.96;99778.30;105767;1261;60254;-70
2023/03/22 21:03:48;;;;;;;45.30;34.20;;;;;;;9.95;84.09;99780.41;105531;1257;61060;-70
2023/03/22 21:06:15;;;;;;;44.30;34.50;;;;;;;9.94;84.08;99775.86;105760;1257;73875;-69
2023/03/22 21:08:42;;;;;;;43.50;36.50;;;;;;;9.94;83.99;99774.42;105747;1254;68270;-72
2023/03/22 21:11:10;;;;;;;48.90;34.60;;;;;;;9.96;84.15;99771.79;105719;1259;72491;-73
2023/03/22 21:13:40;;;;;;;45.00;35.10;;;;;;;9.99;84.17;99770.75;105713;1256;62749;-75
2023/03/22 21:16:12;;;;;;;51.10;37.30;;;;;;;10.02;84.15;99769.98;105602;1255;60416;-75
2023/03/22 21:18:39;;;;;;;58.10;39.60;;;;;;;10.05;84.06;99766.76;105681;1256;73116;-73
2023/03/22 21:21:07;;;;;;;49.90;36.90;;;;;;;10.10;84.08;99772.31;105737;1262;67852;-74
2023/03/22 21:23:39;;;;;;;44.80;35.30;;;;;;;10.12;83.97;99770.20;105677;1254;72675;-73
2023/03/22 21:26:07;;;;;;;45.30;35.70;;;;;;;10.10;83.85;99771.98;105850;1257;60373;-72
2023/03/22 21:28:34;;;;;;;48.60;38.20;;;;;;;10.08;83.85;99771.69;105722;1257;61276;-72
2023/03/22 21:31:06;;;;;;;48.10;36.80;;;;;;;10.05;83.93;99774.02;105792;1256;73785;-72
2023/03/22 21:33:35;;;;;;;45.20;35.30;;;;;;;10.03;83.82;99778.34;105605;1257;69704;-74
2023/03/22 21:36:07;;;;;;;48.10;37.70;;;;;;;9.99;84.05;99782.16;105724;1260;72249;-73
2023/03/22 21:38:39;;;;;;;56.90;41.10;;;;;;;9.94;84.12;99781.83;105728;1259;63267;-70
2023/03/22 21:41:06;;;;;;;50.10;37.10;;;;;;;9.89;84.44;99779.83;105376;1255;59948;-74
2023/03/22 21:43:35;;;;;;;54.80;40.80;;;;;;;9.85;84.71;99777.17;105660;1257;72555;-74
2023/03/22 21:46:09;;;;;;;51.80;37.80;;;;;;;9.81;85.04;99780.54;105873;1257;67627;-72
2023/03/22 21:48:43;;;;;;;63.60;48.30;;;;;;;9.73;86.03;99780.60;105662;1257;73591;-72
2023/03/22 21:51:11;;;;;;;57.90;44.10;;;;;;;9.60;86.20;99784.64;105829;1259;60871;-72
2023/03/22 21:53:39;;;;;;;61.20;43.90;;;;;;;9.54;86.96;99780.48;105650;1257;61209;-74
2023/03/22 21:56:07;;;;;;;53.30;41.00;;;;;;;9.46;87.74;99781.95;106154;1256;73283;-72
2023/03/22 21:58:36;;;;;;;58.80;43.60;;;;;;;9.39;87.98;99778.92;106036;1256;67124;-72
2023/03/22 22:01:03;;;;;;;55.40;41.30;;;;;;;9.40;87.98;99781.05;105819;1257;72645;-73
2023/03/22 22:03:31;;;;;;;51.80;40.80;;;;;;;9.44;87.58;99784.66;105782;1259;62310;-71
2023/03/22 22:06:11;;;;;;;47.60;37.80;;;;;;;9.48;87.91;99784.05;105692;1255;62098;-73
2023/03/22 22:08:38;;;;;;;52.10;38.60;;;;;;;9.45;87.99;99786.17;105474;1263;73961;-69
2023/03/22 22:11:05;;;;;;;48.70;37.90;;;;;;;9.37;88.33;99786.52;105719;1257;68826;-67
2023/03/22 22:13:36;;;;;;;45.80;34.80;;;;;;;9.31;88.92;99789.95;105716;1261;73226;-70
2023/03/22 22:16:10;;;;;;;47.50;37.10;;;;;;;9.27;88.78;99789.16;105560;1257;62522;-74
2023/03/22 22:18:38;;;;;;;53.90;40.30;;;;;;;9.24;89.07;99787.64;105665;1257;60287;-73
2023/03/22 22:21:11;;;;;;;53.80;37.30;;;;;;;9.18;89.56;99785.39;106058;1257;73757;-71
2023/03/22 22:23:44;;;;;;;51.90;36.30;;;;;;;9.13;90.15;99790.12;105774;1257;68284;-71
2023/03/22 22:26:12;;;;;;;57.20;37.90;;;;;;;9.11;90.43;99789.91;105865;1257;73685;-72
2023/03/22 22:28:58;;;;;;;49.90;39.30;;;;;;;9.08;90.75;99792.44;105910;1255;60512;-74
2023/03/22 22:31:29;;;;;;;49.20;36.60;;;;;;;9.08;90.78;99792.90;105673;1261;60375;-70
2023/03/22 22:34:03;;;;;;;44.90;35.90;;;;;;;9.05;91.35;99791.45;105990;1256;74591;-76
2023/03/22 22:36:31;;;;;;;46.20;37.60;;;;;;;9.05;91.44;99793.07;105449;1257;67765;-71
2023/03/22 22:39:03;;;;;;;45.60;35.80;;;;;;;9.04;91.42;99789.61;105479;1257;74423;-77
2023/03/22 22:41:30;;;;;;;47.70;35.70;;;;;;;9.04;91.73;99790.19;105741;1261;60626;-75
2023/03/22 22:43:57;;;;;;;45.10;35.60;;;;;;;9.03;91.40;99791.15;105695;1262;59593;-72
2023/03/22 22:46:25;;;;;;;45.90;37.70;;;;;;;9.00;91.64;99786.76;105617;1260;73948;-73
2023/03/22 22:48:52;;;;;;;45.40;35.00;;;;;;;9.01;91.66;99789.77;106127;1255;67807;-71
2023/03/22 22:51:24;;;;;;;49.00;34.80;;;;;;;9.02;91.67;99788.00;105924;1257;74332;-76
2023/03/22 22:53:54;;;;;;;48.80;36.90;;;;;;;9.01;91.63;99788.91;105854;1259;60894;-69
2023/03/22 22:56:21;;;;;;;43.20;32.90;;;;;;;9.04;91.43;99786.27;105560;1257;59535;-76
2023/03/22 22:58:47;;;;;;;48.40;35.30;;;;;;;9.08;91.38;99788.66;105649;1257;72808;-70
2023/03/22 23:01:15;;;;;;;42.00;34.00;;;;;;;9.10;91.12;99783.26;105582;1257;68022;-75
2023/03/22 23:03:43;;;;;;;47.10;35.30;;;;;;;9.12;90.98;99781.76;105855;1257;73410;-72
2023/03/22 23:06:12;;;;;;;44.90;36.20;;;;;;;9.14;90.85;99780.69;105839;1254;61996;-71
2023/03/22 23:08:42;;;;;;;41.60;33.90;;;;;;;9.18;90.49;99778.51;105876;1254;60402;-72
2023/03/22 23:11:15;;;;;;;52.30;38.60;;;;;;;9.21;90.29;99778.52;105797;1260;73807;-70
2023/03/22 23:13:46;;;;;;;42.40;35.40;;;;;;;9.22;90.17;99780.94;105660;1257;69965;-70
2023/03/22 23:16:21;;;;;;;45.90;35.50;;;;;;;9.24;90.09;99783.18;105681;1262;73050;-70
2023/03/22 23:18:55;;;;;;;54.70;36.30;;;;;;;9.27;89.87;99778.80;105803;1257;63804;-71
2023/03/22 23:21:32;;;;;;;48.80;36.10;;;;;;;9.29;89.61;99776.63;105298;1262;60943;-70
2023/03/22 23:24:00;;;;;;;55.40;43.20;;;;;;;9.26;89.46;99776.14;105830;1254;75618;-72
2023/03/22 23:26:27;;;;;;;45.50;36.10;;;;;;;9.23;89.29;99778.61;105727;1261;66749;-68
2023/03/22 23:28:57;;;;;;;41.60;32.90;;;;;;;9.22;89.29;99775.15;105435;1259;72506;-71
2023/03/22 23:31:30;;;;;;;47.90;37.00;;;;;;;9.20;89.21;99777.11;105469;1260;61916;-70
2023/03/22 23:34:01;;;;;;;51.90;35.30;;;;;;;9.15;89.39;99779.21;105472;1256;61319;-69
2023/03/22 23:36:33;;;;;;;50.90;36.50;;;;;;;9.14;89.47;99778.39;105797;1257;73523;-70
2023/03/22 23:39:03;;;;;;;47.00;32.40;;;;;;;9.16;89.46;99777.02;105169;1257;67540;-69
2023/03/22 23:41:33;;;;;;;53.00;38.70;;;;;;;9.17;89.20;99774.84;105293;1261;73354;-66
2023/03/22 23:44:00;;;;;;;51.30;38.80;;;;;;;9.18;89.00;99776.11;105513;1257;60978;-67
2023/03/22 23:46:28;;;;;;;49.70;36.70;;;;;;;9.21;89.06;99778.09;105600;1257;60970;-67
2023/03/22 23:48:58;;;;;;;60.10;41.00;;;;;;;9.20;88.89;99778.55;105459;1257;75289;-68
2023/03/22 23:51:25;;;;;;;53.70;40.80;;;;;;;9.15;88.88;99780.39;105592;1257;68070;-68
2023/03/22 23:53:57;;;;;;;50.60;38.40;;;;;;;9.11;89.07;99777.36;105453;1260;73823;-67
2023/03/22 23:56:24;;;;;;;51.40;39.10;;;;;;;9.06;88.93;99777.27;105371;1257;62940;-66
2023/03/22 23:58:51;;;;;;;56.30;40.00;;;;;;;9.04;89.11;99774.80;105379;1259;60552;-66
